Sherrills Ford, NC

6:38 AM EST on February 27, 2017 (GMT -0500)
Edith Lane Terrell | | Change Station

Elev 794 ft 35.58 °N, 80.97 °W | Updated 1 minute ago

Mostly Cloudy
Mostly Cloudy
36.7 °F
Feels Like 37 °F
N
0.0
Wind Variable Wind from West
Gusts 1.0 mph

Today
High -- | Low -- °F
--% Chance of Precip.
Yesterday
High -- | Low -- °F
Precip. -- in
Pressure 30.35 in
Visibility 10.0 miles
Clouds Clear
Windchill 37 °F
Dew Point 29 °F
Humidity 73%
Rainfall 0.00 in
Snow Depth Not available.
6:56 AM 6:17 PM
New Moon, 1% visible
METAR KIPJ 271140Z AUTO 00000KT 10SM CLR 01/M03 A3035 RMK AO2 T00061027
Pressure 30.35 in
Visibility 10.0 miles
Clouds Clear
Windchill 37 °F
Dew Point 29 °F
Humidity 73%
Rainfall 0.00 in
Snow Depth Not available.
6:56 AM 6:17 PM
New Moon, 1% visible
METAR KIPJ 271140Z AUTO 00000KT 10SM CLR 01/M03 A3035 RMK AO2 T00061027

Get Your Daily Forecast Email!

Thanks for signing up!

Be on the lookout for a verification email in your inbox.

You'll start receiving the daily forecast at 8 AM.

×

10-Day Weather Forecast

Almanac

Astronomy

Feb. 27, 2017 Rise Set
Actual Time
Civil Twilight
Nautical Twilight
Astronomical Twilight
Moon
Length of Visible Light
Length of Day
Tomorrow will be .
, % of the Moon is Illuminated

Today's Extremes

State Highs State Lows

Community

WunderPhotos

Upload Photos

1,962,540 photos uploaded!

WunderBlog® & News

Nearby

Air Quality

  Air Quality AQ Index Pollutant
Not available.

Snow Depth

Station Depth Elevation

Earthquake Activity

City Distance Mag. Time & Date
Minimum magnitude displayed is 2.5.

Coastal Water Temperatures

Place Temperature

Stations

Nearby Weather Stations

Station Location Temp. Windchill Dew Point Humidity Wind Precip. Elev Updated Type
                   

Watches & Warnings

There are currently no watches in effect.